createdAt,value
2018-12-13T00:03:16.573Z,2.4
2018-12-13T00:19:50.467Z,2.4
2018-12-13T00:36:24.459Z,2.4
2018-12-13T00:52:58.333Z,2.4
2018-12-13T01:09:32.263Z,2.4
2018-12-13T01:26:06.294Z,2.4
2018-12-13T01:42:40.124Z,2.1
2018-12-13T01:59:13.968Z,1.8
2018-12-13T02:32:20.976Z,1.4
2018-12-13T02:48:54.480Z,1.4
2018-12-13T03:05:27.652Z,1.1
2018-12-13T03:22:00.917Z,1.1
2018-12-13T03:38:34.218Z,1.1
2018-12-13T03:55:07.253Z,1.1
2018-12-13T04:11:40.378Z,0.8
2018-12-13T04:28:13.380Z,0.8
2018-12-13T04:44:46.415Z,0.5
2018-12-13T05:01:19.205Z,0.5
2018-12-13T05:17:51.947Z,0.5
2018-12-13T05:34:24.771Z,0.2
2018-12-13T05:50:57.466Z,0.2
2018-12-13T06:07:30.144Z,0.2
2018-12-13T06:24:03.885Z,0.2
2018-12-13T06:40:35.502Z,-0.2
2018-12-13T06:57:08.073Z,-0.2
2018-12-13T07:13:40.737Z,-0.2
2018-12-13T07:30:13.151Z,-0.2
2018-12-13T07:46:45.721Z,0.2
2018-12-13T08:03:18.488Z,0.5
2018-12-13T08:19:51.607Z,0.8
2018-12-13T08:36:24.574Z,1.1
2018-12-13T08:52:57.943Z,1.4
2018-12-13T09:09:31.345Z,1.4
2018-12-13T09:26:04.858Z,2.1
2018-12-13T09:42:38.777Z,2.1
2018-12-13T09:59:12.746Z,2.7
2018-12-13T10:15:47.275Z,2.7
2018-12-13T10:29:03.067Z,3.4
2018-12-13T10:45:37.927Z,3.4
2018-12-13T11:02:12.803Z,3.4
2018-12-13T11:18:47.860Z,3.7
2018-12-13T11:35:22.667Z,3.4
2018-12-13T11:51:57.600Z,3.7
2018-12-13T12:08:32.736Z,3.7
2018-12-13T12:25:07.854Z,4.0
2018-12-13T12:41:43.118Z,4.0
2018-12-13T12:58:18.060Z,3.7
2018-12-13T13:14:53.127Z,3.7
2018-12-13T13:31:28.178Z,3.7
2018-12-13T13:48:03.072Z,3.4
2018-12-13T14:04:37.969Z,3.4
2018-12-13T14:21:12.769Z,3.4
2018-12-13T14:37:47.459Z,3.0
2018-12-13T14:54:22.074Z,3.0
2018-12-13T15:10:56.846Z,3.0
2018-12-13T15:27:31.238Z,3.0
2018-12-13T15:44:05.811Z,3.0
2018-12-13T16:00:40.389Z,2.7
2018-12-13T16:17:15.094Z,2.7
2018-12-13T16:33:49.474Z,2.7
2018-12-13T16:50:23.926Z,2.7
2018-12-13T17:06:58.728Z,2.7
2018-12-13T17:23:32.782Z,2.7
2018-12-13T17:40:07.250Z,2.4
2018-12-13T17:56:41.650Z,2.4
2018-12-13T18:13:15.847Z,2.4
2018-12-13T18:29:49.936Z,2.4
2018-12-13T18:46:23.787Z,2.4
2018-12-13T19:02:57.682Z,2.4
2018-12-13T19:19:31.733Z,2.4
2018-12-13T19:36:05.395Z,2.1
2018-12-13T19:52:39.058Z,2.1
2018-12-13T20:09:13.501Z,1.8
2018-12-13T20:25:46.358Z,2.1
2018-12-13T20:42:20.129Z,2.1
2018-12-13T20:58:53.802Z,2.1
2018-12-13T21:15:27.628Z,2.1
2018-12-13T21:32:01.352Z,2.1
2018-12-13T21:48:35.048Z,2.1
2018-12-13T22:05:08.527Z,1.8
2018-12-13T22:21:41.911Z,1.4
2018-12-13T22:38:15.114Z,1.4
2018-12-13T22:54:48.417Z,1.1
2018-12-13T23:11:21.535Z,1.4
2018-12-13T23:27:54.805Z,1.4
2018-12-13T23:44:28.127Z,1.1
